Time;durP1;ratioP1;P1;durP2;ratioP2;P2;SDS_P1;SDS_P2;PMS_P1;PMS_P2;Temp;Humidity;BMP_temperature;BMP_pressure;BME280_temperature;BME280_humidity;BME280_pressure;Samples;Min_cycle;Max_cycle;Signal;HPM_P1;HPM_P2
2021/12/13 00:01:08;;;;;;;7.25;3.80;;;2.60;97.80;;;;;;2073663;28;20189;-69
2021/12/13 00:02:34;;;;;;;9.20;3.67;;;2.60;97.70;;;;;;2080329;28;20196;-69
2021/12/13 00:03:57;;;;;;;11.07;3.97;;;2.60;97.60;;;;;;2080813;28;20171;-69
2021/12/13 00:05:14;;;;;;;7.72;3.33;;;2.50;97.60;;;;;;2079638;28;20184;-69
2021/12/13 00:06:24;;;;;;;8.80;3.70;;;2.60;97.60;;;;;;2080660;28;20189;-70
2021/12/13 00:07:34;;;;;;;11.40;3.67;;;2.60;97.60;;;;;;2080598;28;20565;-69
2021/12/13 00:08:40;;;;;;;7.50;3.67;;;2.60;97.50;;;;;;2081399;28;20170;-69
2021/12/13 00:09:48;;;;;;;6.40;3.40;;;2.60;97.50;;;;;;2080624;28;20258;-69
2021/12/13 00:10:57;;;;;;;8.60;3.70;;;2.60;97.50;;;;;;2073650;28;20191;-69
2021/12/13 00:12:02;;;;;;;8.20;3.92;;;2.60;97.50;;;;;;2073936;28;20260;-69
2021/12/13 00:13:13;;;;;;;8.75;4.38;;;2.60;97.50;;;;;;2073031;28;20285;-70
2021/12/13 00:14:28;;;;;;;12.20;4.35;;;2.60;97.40;;;;;;2080873;28;20219;-69
2021/12/13 00:15:36;;;;;;;8.10;3.63;;;2.60;97.50;;;;;;2072394;28;20182;-69
2021/12/13 00:16:44;;;;;;;7.65;4.00;;;2.60;97.40;;;;;;2066330;28;20576;-69
2021/12/13 00:17:50;;;;;;;7.00;4.20;;;2.60;97.40;;;;;;2073526;28;20204;-69
2021/12/13 00:18:58;;;;;;;8.52;4.32;;;2.60;97.30;;;;;;2073210;28;20598;-70
2021/12/13 00:20:16;;;;;;;9.05;4.55;;;2.60;97.20;;;;;;2073563;28;20731;-69
2021/12/13 00:21:23;;;;;;;7.88;3.85;;;2.70;97.10;;;;;;2074691;28;20175;-69
2021/12/13 00:22:37;;;;;;;12.73;4.43;;;2.60;97.10;;;;;;2080844;28;20168;-69
2021/12/13 00:23:51;;;;;;;8.45;3.80;;;2.60;97.10;;;;;;2080737;28;20203;-69
2021/12/13 00:24:53;;;;;;;8.20;4.63;;;2.60;97.00;;;;;;2080738;28;20181;-69
2021/12/13 00:25:59;;;;;;;11.50;4.53;;;2.60;97.00;;;;;;2080411;28;20191;-70
2021/12/13 00:27:09;;;;;;;7.47;3.90;;;2.60;97.10;;;;;;2073154;28;20247;-69
2021/12/13 00:28:15;;;;;;;10.77;4.05;;;2.60;97.00;;;;;;2073648;28;20208;-69
2021/12/13 00:29:23;;;;;;;8.30;3.95;;;2.50;97.00;;;;;;2064950;28;20723;-69
2021/12/13 00:30:34;;;;;;;8.55;3.90;;;2.50;97.10;;;;;;2073609;28;20177;-69
2021/12/13 00:31:55;;;;;;;11.68;4.25;;;2.50;97.20;;;;;;2081223;28;20170;-69
2021/12/13 00:33:45;;;;;;;11.48;4.82;;;2.50;97.30;;;;;;2081115;28;20171;-69
2021/12/13 00:35:00;;;;;;;9.60;4.32;;;2.50;97.60;;;;;;2080544;28;20197;-69
2021/12/13 00:36:18;;;;;;;7.80;4.00;;;2.40;97.70;;;;;;2080712;28;20201;-69
2021/12/13 00:37:31;;;;;;;11.40;4.40;;;2.50;97.70;;;;;;2074798;28;20633;-69
2021/12/13 00:38:41;;;;;;;10.23;4.00;;;2.50;97.70;;;;;;2082196;28;20204;-69
2021/12/13 00:39:58;;;;;;;9.18;3.88;;;2.50;97.60;;;;;;2087680;28;20170;-69
2021/12/13 00:41:05;;;;;;;8.07;4.15;;;2.50;97.60;;;;;;2081286;28;20178;-70
2021/12/13 00:42:07;;;;;;;8.90;3.92;;;2.50;97.40;;;;;;2082291;28;20259;-69
2021/12/13 00:43:18;;;;;;;9.13;4.50;;;2.50;97.40;;;;;;2082214;28;20180;-69
2021/12/13 00:44:47;;;;;;;10.40;4.65;;;2.50;97.50;;;;;;2086884;28;20739;-69
2021/12/13 00:46:00;;;;;;;10.35;4.47;;;2.50;97.60;;;;;;2091185;28;20745;-69
2021/12/13 00:47:14;;;;;;;9.02;4.35;;;2.40;97.60;;;;;;2091048;28;20178;-69
2021/12/13 00:48:17;;;;;;;9.25;4.43;;;2.40;97.80;;;;;;2090245;28;20208;-69
2021/12/13 00:49:22;;;;;;;11.10;5.32;;;2.40;97.80;;;;;;2082582;28;20179;-69
2021/12/13 00:50:32;;;;;;;8.65;4.07;;;2.50;97.80;;;;;;2090447;28;20234;-68
2021/12/13 00:51:37;;;;;;;12.27;4.75;;;2.50;97.70;;;;;;2090379;28;20177;-69
2021/12/13 00:52:43;;;;;;;4.80;3.60;;;2.50;97.70;;;;;;2082582;28;20190;-69
2021/12/13 00:53:48;;;;;;;8.25;3.80;;;2.40;97.70;;;;;;2090441;28;20167;-69
2021/12/13 00:54:52;;;;;;;7.07;3.53;;;2.40;97.70;;;;;;2090868;28;20249;-69
2021/12/13 00:55:53;;;;;;;8.02;3.85;;;2.50;97.80;;;;;;2090300;28;20181;-69
2021/12/13 00:56:56;;;;;;;11.37;4.60;;;2.50;97.70;;;;;;2081958;28;20377;-69
2021/12/13 00:58:10;;;;;;;11.35;3.97;;;2.50;97.60;;;;;;2082250;28;20223;-69
2021/12/13 00:59:27;;;;;;;7.30;3.80;;;2.50;97.60;;;;;;2090446;28;20172;-69
2021/12/13 01:00:36;;;;;;;11.18;4.32;;;2.50;97.60;;;;;;2090893;28;20532;-69
2021/12/13 01:01:37;;;;;;;6.63;4.18;;;2.50;97.60;;;;;;2090894;28;20678;-69
2021/12/13 01:03:38;;;;;;;7.53;3.90;;;2.50;97.70;;;;;;2090142;28;20584;-69
2021/12/13 01:05:05;;;;;;;7.03;3.85;;;2.50;97.60;;;;;;2081530;28;20182;-70
2021/12/13 01:07:02;;;;;;;10.90;3.97;;;2.50;97.50;;;;;;2084983;28;20196;-70
2021/12/13 01:08:30;;;;;;;6.10;3.33;;;2.50;97.50;;;;;;2090818;28;20228;-69
2021/12/13 01:10:27;;;;;;;8.65;3.72;;;2.50;97.50;;;;;;2090939;28;20178;-69
2021/12/13 01:12:09;;;;;;;5.80;3.08;;;2.50;97.40;;;;;;2090789;28;20659;-69
2021/12/13 01:13:17;;;;;;;8.02;3.53;;;2.50;97.40;;;;;;2090241;28;20209;-69
2021/12/13 01:14:42;;;;;;;8.30;3.50;;;2.50;97.50;;;;;;2090531;28;20185;-69
2021/12/13 01:15:59;;;;;;;7.43;3.50;;;2.50;97.50;;;;;;2090761;28;20265;-69
2021/12/13 01:17:38;;;;;;;8.48;4.47;;;2.50;97.60;;;;;;2090759;28;20184;-69
2021/12/13 01:19:50;;;;;;;7.82;3.08;;;2.50;97.50;;;;;;2090798;28;20614;-69
2021/12/13 01:20:31;;;;;;;6.40;2.85;;;2.50;97.70;;;;;;2085633;28;20193;-69
2021/12/13 01:22:20;;;;;;;6.63;3.08;;;2.40;97.80;;;;;;2090812;28;20162;-69
2021/12/13 01:23:38;;;;;;;5.00;2.63;;;2.40;97.80;;;;;;2090134;28;20241;-69
2021/12/13 01:25:14;;;;;;;6.40;2.90;;;2.40;98.00;;;;;;2086543;28;20177;-69
2021/12/13 01:27:37;;;;;;;3.78;2.55;;;2.40;98.60;;;;;;2090850;28;20562;-69
2021/12/13 01:28:43;;;;;;;3.67;2.22;;;2.40;98.80;;;;;;2090694;28;20648;-68
2021/12/13 01:29:51;;;;;;;4.18;2.40;;;2.40;98.80;;;;;;2090214;28;20616;-69
2021/12/13 01:31:07;;;;;;;4.40;1.83;;;2.40;98.90;;;;;;2090142;28;20666;-69
2021/12/13 01:32:11;;;;;;;4.88;2.05;;;2.40;98.80;;;;;;2090091;28;20175;-69
2021/12/13 01:33:14;;;;;;;2.63;1.70;;;2.50;99.20;;;;;;2090092;28;20249;-69
2021/12/13 01:34:17;;;;;;;2.63;1.75;;;2.50;99.30;;;;;;2090010;28;20219;-69
2021/12/13 01:35:28;;;;;;;3.75;2.10;;;2.50;99.10;;;;;;2081834;28;20173;-69
2021/12/13 01:36:42;;;;;;;2.53;1.67;;;2.50;98.90;;;;;;2083224;28;20793;-69
2021/12/13 01:37:50;;;;;;;3.47;1.75;;;2.50;98.80;;;;;;2090095;28;20166;-69
2021/12/13 01:39:15;;;;;;;3.28;1.73;;;2.50;98.80;;;;;;2089988;28;20281;-69
2021/12/13 01:40:20;;;;;;;5.72;1.73;;;2.50;98.70;;;;;;2086125;28;20158;-69
2021/12/13 01:41:28;;;;;;;2.53;1.52;;;2.50;98.70;;;;;;2089917;28;20263;-69
2021/12/13 01:42:29;;;;;;;2.40;1.58;;;2.50;98.40;;;;;;2089990;28;20663;-69
2021/12/13 01:43:32;;;;;;;2.33;1.60;;;2.40;98.20;;;;;;2089868;28;20669;-69
2021/12/13 01:44:41;;;;;;;2.72;1.65;;;2.50;98.40;;;;;;2098041;28;20940;-70
2021/12/13 01:45:46;;;;;;;2.83;1.52;;;2.40;98.40;;;;;;2097353;28;20171;-69
2021/12/13 01:47:01;;;;;;;2.83;1.67;;;2.50;98.50;;;;;;2090588;28;20179;-69
2021/12/13 01:48:05;;;;;;;2.80;1.65;;;2.40;98.90;;;;;;2090662;28;20205;-69
2021/12/13 01:49:07;;;;;;;3.33;2.25;;;2.40;98.60;;;;;;2089900;28;20273;-69
2021/12/13 01:50:20;;;;;;;4.07;2.08;;;2.40;98.70;;;;;;2081875;28;20233;-69
2021/12/13 01:51:26;;;;;;;4.35;2.00;;;2.40;98.70;;;;;;2090080;28;20167;-70
2021/12/13 01:52:34;;;;;;;3.83;1.90;;;2.40;98.70;;;;;;2089975;28;20254;-69
2021/12/13 01:54:05;;;;;;;3.17;1.40;;;2.40;98.60;;;;;;2081977;28;20200;-69
2021/12/13 01:55:24;;;;;;;3.15;1.98;;;2.40;98.40;;;;;;2085472;28;20180;-69
2021/12/13 01:56:43;;;;;;;2.92;1.70;;;2.40;98.30;;;;;;2090122;28;20165;-69
2021/12/13 01:57:55;;;;;;;3.10;1.55;;;2.40;98.20;;;;;;2090458;28;20173;-69
2021/12/13 01:59:03;;;;;;;2.20;1.55;;;2.40;98.20;;;;;;2090086;28;20574;-69
2021/12/13 02:00:21;;;;;;;3.25;1.73;;;2.50;98.20;;;;;;2084052;28;20171;-69
2021/12/13 02:01:24;;;;;;;3.53;1.50;;;2.40;98.10;;;;;;2084738;28;20287;-70
2021/12/13 02:02:43;;;;;;;2.35;1.40;;;2.40;98.10;;;;;;2089626;28;20273;-69
2021/12/13 02:03:53;;;;;;;1.63;1.27;;;2.40;98.10;;;;;;2089843;28;20633;-69
2021/12/13 02:04:59;;;;;;;2.38;1.42;;;2.40;98.20;;;;;;2082685;28;20168;-69
2021/12/13 02:06:01;;;;;;;1.90;1.30;;;2.40;98.30;;;;;;2089875;28;20564;-69
2021/12/13 02:07:04;;;;;;;2.35;1.30;;;2.40;98.30;;;;;;2089751;28;20251;-69
2021/12/13 02:08:13;;;;;;;2.70;1.48;;;2.40;98.30;;;;;;2081687;28;20224;-69
2021/12/13 02:09:25;;;;;;;1.63;1.17;;;2.40;98.80;;;;;;2082677;28;20178;-69
2021/12/13 02:10:32;;;;;;;2.55;1.55;;;2.40;98.30;;;;;;2089756;28;20591;-69
2021/12/13 02:11:34;;;;;;;1.17;1.02;;;2.50;98.40;;;;;;2090444;28;20181;-69
2021/12/13 02:12:41;;;;;;;1.60;1.08;;;2.50;98.30;;;;;;2090368;28;20179;-69
2021/12/13 02:14:03;;;;;;;1.85;1.35;;;2.50;98.20;;;;;;2089766;28;20176;-69
2021/12/13 02:17:46;;;;;;;1.77;1.10;;;2.40;98.30;;;;;;2086369;28;20171;-69
2021/12/13 02:18:57;;;;;;;2.05;1.20;;;2.40;98.40;;;;;;2084310;28;20182;-69
2021/12/13 02:20:11;;;;;;;2.38;1.13;;;2.40;98.40;;;;;;2082742;28;20823;-69
2021/12/13 02:21:30;;;;;;;2.22;1.35;;;2.40;98.40;;;;;;2089806;28;20195;-69
2021/12/13 02:22:44;;;;;;;2.88;1.60;;;2.40;98.40;;;;;;2090289;28;20181;-69
2021/12/13 02:23:51;;;;;;;2.15;1.55;;;2.40;98.40;;;;;;2090331;28;20168;-69
2021/12/13 02:24:55;;;;;;;2.90;1.60;;;2.40;98.40;;;;;;2089474;28;20186;-69
2021/12/13 02:25:57;;;;;;;1.63;1.30;;;2.50;98.30;;;;;;2081774;28;20176;-69
2021/12/13 02:26:59;;;;;;;2.58;1.48;;;2.50;98.30;;;;;;2081444;28;20188;-68
2021/12/13 02:28:10;;;;;;;2.65;1.30;;;2.50;98.30;;;;;;2081585;28;20217;-69
2021/12/13 02:29:35;;;;;;;1.90;1.30;;;2.50;98.20;;;;;;2089823;28;20174;-69
2021/12/13 02:30:49;;;;;;;1.67;1.05;;;2.50;98.10;;;;;;2090191;28;20243;-69
2021/12/13 02:31:50;;;;;;;1.42;1.13;;;2.50;98.00;;;;;;2089506;28;20291;-70
2021/12/13 02:32:52;;;;;;;1.60;1.02;;;2.50;98.00;;;;;;2089492;28;20244;-69
2021/12/13 02:34:02;;;;;;;5.25;1.40;;;2.50;97.90;;;;;;2097829;28;20193;-69
2021/12/13 02:35:06;;;;;;;3.70;1.23;;;2.50;97.90;;;;;;2096561;28;20166;-69
2021/12/13 02:36:21;;;;;;;2.13;1.27;;;2.50;97.90;;;;;;2090293;28;20210;-69
2021/12/13 02:37:25;;;;;;;2.72;1.77;;;2.50;97.90;;;;;;2090064;28;20200;-69
2021/12/13 02:38:27;;;;;;;4.63;2.10;;;2.50;97.80;;;;;;2089509;28;20201;-69
2021/12/13 02:39:37;;;;;;;5.50;2.15;;;2.50;97.80;;;;;;2089488;28;20258;-69
2021/12/13 02:40:38;;;;;;;4.00;1.88;;;2.50;97.90;;;;;;2089680;28;20212;-70
2021/12/13 02:41:42;;;;;;;2.50;1.30;;;2.40;97.90;;;;;;2081220;28;20304;-69
2021/12/13 02:42:45;;;;;;;2.60;1.52;;;2.40;98.00;;;;;;2089529;28;20413;-68
2021/12/13 02:43:50;;;;;;;2.28;1.70;;;2.40;98.10;;;;;;2089382;28;20703;-69
2021/12/13 02:45:13;;;;;;;1.98;1.48;;;2.40;98.00;;;;;;2082004;28;20166;-69
2021/12/13 02:46:15;;;;;;;2.42;1.45;;;2.40;97.90;;;;;;2084278;28;20164;-69
2021/12/13 02:47:26;;;;;;;2.47;1.60;;;2.40;97.90;;;;;;2081723;28;20174;-71
2021/12/13 02:48:32;;;;;;;4.45;1.90;;;2.40;97.90;;;;;;2089249;28;20235;-71
2021/12/13 02:49:33;;;;;;;2.80;1.40;;;2.30;98.00;;;;;;2089480;28;20185;-69
2021/12/13 02:50:49;;;;;;;3.53;2.00;;;2.30;98.10;;;;;;2089549;28;20590;-69
2021/12/13 02:52:00;;;;;;;2.72;1.70;;;2.30;98.30;;;;;;2090008;28;20509;-69
2021/12/13 02:53:03;;;;;;;3.35;1.38;;;2.20;98.50;;;;;;2089352;28;20174;-69
2021/12/13 02:54:12;;;;;;;4.10;1.70;;;2.20;98.60;;;;;;2081468;28;20182;-69
2021/12/13 02:55:23;;;;;;;2.80;1.60;;;2.20;98.60;;;;;;2089481;28;20169;-69
2021/12/13 02:56:34;;;;;;;2.15;1.40;;;2.20;98.60;;;;;;2089505;28;20162;-69
2021/12/13 02:57:49;;;;;;;2.30;1.20;;;2.20;98.70;;;;;;2089417;28;20162;-69
2021/12/13 02:58:53;;;;;;;2.05;1.17;;;2.20;98.80;;;;;;2089437;28;20169;-69
2021/12/13 03:00:09;;;;;;;2.92;1.75;;;2.20;98.80;;;;;;2089414;28;20219;-69
2021/12/13 03:01:23;;;;;;;1.52;1.10;;;2.20;98.80;;;;;;2090001;28;20173;-70
2021/12/13 03:02:35;;;;;;;2.88;1.30;;;2.20;98.80;;;;;;2089437;28;20167;-69
2021/12/13 03:03:47;;;;;;;2.30;1.50;;;2.20;98.80;;;;;;2082590;28;20260;-69
2021/12/13 03:04:50;;;;;;;1.55;1.15;;;2.20;98.80;;;;;;2089391;28;20653;-69
2021/12/13 03:05:54;;;;;;;1.80;1.42;;;2.20;98.80;;;;;;2089157;28;20250;-70
2021/12/13 03:07:09;;;;;;;3.35;1.30;;;2.30;98.70;;;;;;2089346;28;20172;-69
2021/12/13 03:08:19;;;;;;;3.05;1.20;;;2.20;98.60;;;;;;2089287;28;20200;-70
2021/12/13 03:09:24;;;;;;;3.88;1.50;;;2.30;98.70;;;;;;2082364;28;20215;-69
2021/12/13 03:10:33;;;;;;;4.55;1.38;;;2.30;98.60;;;;;;2081794;28;20182;-69
2021/12/13 03:11:34;;;;;;;1.98;1.30;;;2.30;98.60;;;;;;2082267;28;20196;-69
2021/12/13 03:12:36;;;;;;;2.63;1.50;;;2.30;98.60;;;;;;2089365;28;20273;-69
2021/12/13 03:13:37;;;;;;;2.65;1.50;;;2.40;98.60;;;;;;2089221;28;20205;-69
2021/12/13 03:14:49;;;;;;;2.90;1.63;;;2.40;98.50;;;;;;2080921;28;20675;-69
2021/12/13 03:16:06;;;;;;;2.90;1.60;;;2.40;98.50;;;;;;2089447;28;20629;-69
2021/12/13 03:17:21;;;;;;;2.30;1.60;;;2.40;98.40;;;;;;2089464;28;20186;-69
2021/12/13 03:18:40;;;;;;;2.50;1.35;;;2.40;98.70;;;;;;2082836;28;20194;-69
2021/12/13 03:19:41;;;;;;;2.42;1.40;;;2.40;98.40;;;;;;2083578;28;20540;-69
2021/12/13 03:21:02;;;;;;;2.30;1.60;;;2.40;98.40;;;;;;2089143;28;20222;-69
2021/12/13 03:22:48;;;;;;;3.05;1.63;;;2.40;98.30;;;;;;2089990;28;20171;-69
2021/12/13 03:24:19;;;;;;;2.38;1.20;;;2.40;98.20;;;;;;2090010;28;20192;-70
2021/12/13 03:26:22;;;;;;;1.73;1.25;;;2.40;98.20;;;;;;2088935;28;20175;-70
2021/12/13 03:27:37;;;;;;;3.03;1.40;;;2.40;98.30;;;;;;2088803;28;20595;-70
2021/12/13 03:29:11;;;;;;;1.75;1.10;;;2.40;98.40;;;;;;2089294;28;20219;-70
2021/12/13 03:30:24;;;;;;;2.03;1.05;;;2.40;98.30;;;;;;2085372;28;20174;-70
2021/12/13 03:31:27;;;;;;;1.20;1.10;;;2.40;98.30;;;;;;2082724;28;20177;-69
2021/12/13 03:32:52;;;;;;;1.70;1.30;;;2.50;98.30;;;;;;2081175;28;20221;-70
2021/12/13 03:34:07;;;;;;;3.63;1.40;;;2.50;98.20;;;;;;2084490;28;20183;-70
2021/12/13 03:35:13;;;;;;;1.42;0.82;;;2.50;98.10;;;;;;2082506;28;20237;-70
2021/12/13 03:36:20;;;;;;;2.13;1.10;;;2.50;98.50;;;;;;2089253;28;20253;-69
2021/12/13 03:37:41;;;;;;;1.77;1.20;;;2.50;98.00;;;;;;2088918;28;20177;-70
2021/12/13 03:38:51;;;;;;;1.45;0.90;;;2.50;97.90;;;;;;2083832;28;20250;-70
2021/12/13 03:40:04;;;;;;;1.13;1.00;;;2.50;97.80;;;;;;2089253;28;20180;-70
2021/12/13 03:41:12;;;;;;;1.35;0.90;;;2.50;97.80;;;;;;2089687;28;20163;-70
2021/12/13 03:42:21;;;;;;;1.58;0.93;;;2.60;97.80;;;;;;2089197;28;20179;-70
2021/12/13 03:43:39;;;;;;;1.20;0.90;;;2.50;97.80;;;;;;2089207;28;20175;-70
2021/12/13 03:44:46;;;;;;;1.25;1.02;;;2.60;97.80;;;;;;2089026;28;20844;-69
2021/12/13 03:45:55;;;;;;;2.05;1.10;;;2.60;97.70;;;;;;2081724;28;20250;-69
2021/12/13 03:47:08;;;;;;;2.45;1.08;;;2.60;98.20;;;;;;2089124;28;20171;-70
2021/12/13 03:48:13;;;;;;;0.82;0.77;;;2.60;97.70;;;;;;2089517;28;20220;-70
2021/12/13 03:49:17;;;;;;;2.45;1.30;;;2.60;97.60;;;;;;2089661;28;20548;-70
2021/12/13 03:50:30;;;;;;;1.77;1.13;;;2.60;97.60;;;;;;2089548;28;20190;-70
2021/12/13 03:51:36;;;;;;;1.48;1.10;;;2.60;97.60;;;;;;2089071;28;20181;-70
2021/12/13 03:52:42;;;;;;;2.47;1.25;;;2.60;97.60;;;;;;2081455;28;20179;-70
2021/12/13 03:53:49;;;;;;;2.25;1.48;;;2.60;97.60;;;;;;2081626;28;20257;-70
2021/12/13 03:54:54;;;;;;;1.73;1.00;;;2.60;97.60;;;;;;2081324;28;20211;-70
2021/12/13 03:56:12;;;;;;;2.55;1.40;;;2.60;97.70;;;;;;2081480;28;20175;-70
2021/12/13 03:57:17;;;;;;;1.80;1.35;;;2.60;97.70;;;;;;2082960;28;20814;-70
2021/12/13 03:58:22;;;;;;;1.67;1.20;;;2.60;97.80;;;;;;2081135;28;20236;-70
2021/12/13 03:59:28;;;;;;;1.58;1.25;;;2.60;97.70;;;;;;2089149;28;20161;-70
2021/12/13 04:00:37;;;;;;;1.55;1.20;;;2.60;97.60;;;;;;2088999;28;20271;-70
2021/12/13 04:01:49;;;;;;;2.92;1.48;;;2.60;97.50;;;;;;2088967;28;20162;-69
2021/12/13 04:02:53;;;;;;;3.50;1.60;;;2.60;97.40;;;;;;2082152;28;20191;-70
2021/12/13 04:03:59;;;;;;;3.22;1.80;;;2.60;97.40;;;;;;2081210;28;20180;-69
2021/12/13 04:05:07;;;;;;;1.77;1.20;;;2.60;97.40;;;;;;2088881;28;20177;-69
2021/12/13 04:06:08;;;;;;;2.83;1.40;;;2.60;97.40;;;;;;2089310;28;20629;-70
2021/12/13 04:07:42;;;;;;;2.00;1.33;;;2.50;97.40;;;;;;2088439;28;20180;-70
2021/12/13 04:08:53;;;;;;;3.33;1.70;;;2.60;97.40;;;;;;2084668;28;20221;-70
2021/12/13 04:09:59;;;;;;;2.65;1.70;;;2.50;97.50;;;;;;2088986;28;20198;-70
2021/12/13 04:11:05;;;;;;;2.55;1.42;;;2.50;97.70;;;;;;2088864;28;20185;-70
2021/12/13 04:12:08;;;;;;;2.17;1.60;;;2.40;97.70;;;;;;2088932;28;20205;-70
2021/12/13 04:13:14;;;;;;;3.03;1.60;;;2.40;97.80;;;;;;2088664;28;20213;-70
2021/12/13 04:14:25;;;;;;;2.22;1.40;;;2.40;97.80;;;;;;2088925;28;20213;-70
2021/12/13 04:17:22;;;;;;;1.52;1.10;;;2.40;97.90;;;;;;2089250;28;20184;-70
2021/12/13 04:19:06;;;;;;;2.00;1.42;;;2.40;97.90;;;;;;2089393;28;20835;-70
2021/12/13 04:20:09;;;;;;;2.88;1.48;;;2.40;97.90;;;;;;2089331;28;20396;-70
2021/12/13 04:21:11;;;;;;;1.77;1.42;;;2.40;98.00;;;;;;2089494;28;20157;-69
2021/12/13 04:22:14;;;;;;;2.00;1.40;;;2.30;98.00;;;;;;2088844;28;20190;-70
2021/12/13 04:23:21;;;;;;;2.38;1.40;;;2.30;98.10;;;;;;2088745;28;20176;-70
2021/12/13 04:24:34;;;;;;;1.80;1.40;;;2.30;98.30;;;;;;2088872;28;20175;-70
2021/12/13 04:25:40;;;;;;;1.38;1.17;;;2.30;98.50;;;;;;2082114;28;20563;-69
2021/12/13 04:26:52;;;;;;;1.95;1.58;;;2.30;98.60;;;;;;2089136;28;20174;-69
2021/12/13 04:28:13;;;;;;;3.88;1.45;;;2.30;98.70;;;;;;2088765;28;20205;-69
2021/12/13 04:29:26;;;;;;;1.65;1.23;;;2.30;98.80;;;;;;2083392;28;20175;-68
2021/12/13 04:30:40;;;;;;;3.33;1.48;;;2.40;98.80;;;;;;2082171;28;20321;-69
2021/12/13 04:31:41;;;;;;;1.95;1.17;;;2.40;98.70;;;;;;2089096;28;20717;-69
2021/12/13 04:32:47;;;;;;;2.58;1.50;;;2.50;98.60;;;;;;2089407;28;20584;-69
2021/12/13 04:33:56;;;;;;;1.98;1.02;;;2.50;98.50;;;;;;2088927;28;20205;-69
2021/12/13 04:35:03;;;;;;;1.80;1.38;;;2.50;98.90;;;;;;2088793;28;20174;-69
2021/12/13 04:36:17;;;;;;;2.22;1.20;;;2.60;98.40;;;;;;2089364;28;20161;-68
2021/12/13 04:37:23;;;;;;;1.63;1.13;;;2.50;98.30;;;;;;2089374;28;20173;-68
2021/12/13 04:38:39;;;;;;;1.92;1.38;;;2.60;98.30;;;;;;2088690;28;20239;-69
2021/12/13 04:39:44;;;;;;;3.53;1.83;;;2.60;98.30;;;;;;2082787;28;20170;-68
2021/12/13 04:40:45;;;;;;;2.80;1.45;;;2.60;98.20;;;;;;2081184;28;20193;-69
2021/12/13 04:41:55;;;;;;;2.28;1.52;;;2.60;98.20;;;;;;2080542;28;20196;-69
2021/12/13 04:43:06;;;;;;;2.08;1.58;;;2.60;98.20;;;;;;2081777;28;20177;-68
2021/12/13 04:44:15;;;;;;;2.92;1.52;;;2.70;98.10;;;;;;2081988;28;20198;-68
2021/12/13 04:45:23;;;;;;;1.85;1.50;;;2.70;98.00;;;;;;2081625;28;20170;-68
2021/12/13 04:46:28;;;;;;;2.28;1.73;;;2.70;98.00;;;;;;2079775;28;20251;-69
2021/12/13 04:47:54;;;;;;;3.47;1.70;;;2.70;98.10;;;;;;2088680;28;20190;-68
2021/12/13 04:49:02;;;;;;;1.70;1.60;;;2.70;98.10;;;;;;2088830;28;20168;-69
2021/12/13 04:50:10;;;;;;;2.15;1.80;;;2.70;98.00;;;;;;2088905;28;20171;-69
2021/12/13 04:51:16;;;;;;;2.67;1.83;;;2.70;98.10;;;;;;2088779;28;20866;-68
2021/12/13 04:52:20;;;;;;;2.50;1.80;;;2.70;98.00;;;;;;2088748;28;20171;-68
2021/12/13 04:53:27;;;;;;;2.88;1.80;;;2.80;98.00;;;;;;2088600;28;20210;-68
2021/12/13 04:54:31;;;;;;;2.05;1.85;;;2.70;98.00;;;;;;2088712;28;20161;-69
2021/12/13 04:55:40;;;;;;;1.77;1.63;;;2.70;98.10;;;;;;2089337;28;20181;-69
2021/12/13 04:56:42;;;;;;;2.13;1.70;;;2.70;98.60;;;;;;2088528;28;20227;-69
2021/12/13 04:57:43;;;;;;;2.80;1.70;;;2.70;98.10;;;;;;2080645;28;20573;-68
2021/12/13 04:58:47;;;;;;;3.50;2.00;;;2.70;98.20;;;;;;2088525;28;20253;-69
2021/12/13 04:59:57;;;;;;;3.20;1.60;;;2.70;98.20;;;;;;2089211;28;20287;-69
2021/12/13 05:01:04;;;;;;;1.95;1.60;;;2.70;98.10;;;;;;2088487;28;20606;-69
2021/12/13 05:02:09;;;;;;;2.45;1.42;;;2.70;98.00;;;;;;2088696;28;20166;-69
2021/12/13 05:03:14;;;;;;;2.92;1.70;;;2.70;98.00;;;;;;2089160;28;20173;-69
2021/12/13 05:04:16;;;;;;;3.63;1.80;;;2.70;98.10;;;;;;2088675;28;20210;-69
2021/12/13 05:05:19;;;;;;;2.10;1.73;;;2.70;98.10;;;;;;2080209;28;20216;-69
2021/12/13 05:06:33;;;;;;;2.10;1.40;;;2.60;98.10;;;;;;2080611;28;20246;-68
2021/12/13 05:07:36;;;;;;;2.33;1.45;;;2.60;98.10;;;;;;2088552;28;20245;-69
2021/12/13 05:08:44;;;;;;;1.83;1.40;;;2.50;98.10;;;;;;2088577;28;20189;-69
2021/12/13 05:09:48;;;;;;;2.53;1.50;;;2.50;98.20;;;;;;2088568;28;20183;-69
2021/12/13 05:10:50;;;;;;;2.92;1.80;;;2.40;98.30;;;;;;2089036;28;20173;-69
2021/12/13 05:12:02;;;;;;;3.28;2.00;;;2.40;98.60;;;;;;2089063;28;20190;-69
2021/12/13 05:13:11;;;;;;;2.10;1.52;;;2.30;98.70;;;;;;2089038;28;20186;-69
2021/12/13 05:14:13;;;;;;;2.38;1.50;;;2.30;98.70;;;;;;2088595;28;20172;-68
2021/12/13 05:15:25;;;;;;;2.65;1.80;;;2.30;98.60;;;;;;2088337;28;20174;-69
2021/12/13 05:16:52;;;;;;;2.60;1.50;;;2.30;98.60;;;;;;2089120;28;20170;-69
2021/12/13 05:17:54;;;;;;;4.45;1.70;;;2.30;98.60;;;;;;2088480;28;20261;-69
2021/12/13 05:18:57;;;;;;;1.80;1.55;;;2.20;98.60;;;;;;2080577;28;20264;-69
2021/12/13 05:20:22;;;;;;;2.42;1.63;;;2.20;98.60;;;;;;2088604;28;20173;-68
2021/12/13 05:21:36;;;;;;;3.00;1.60;;;2.20;98.70;;;;;;2089172;28;20164;-68
2021/12/13 05:23:05;;;;;;;2.95;1.50;;;2.10;98.80;;;;;;2088475;28;20231;-69
2021/12/13 05:24:19;;;;;;;3.65;1.90;;;2.10;98.90;;;;;;2088829;28;20650;-69
2021/12/13 05:25:36;;;;;;;2.13;1.60;;;2.10;98.90;;;;;;2088944;28;20244;-68
2021/12/13 05:26:45;;;;;;;3.33;1.60;;;2.10;98.90;;;;;;2088516;28;20272;-69
2021/12/13 05:27:46;;;;;;;2.42;1.80;;;2.10;99.00;;;;;;2088488;28;20259;-69
2021/12/13 05:28:50;;;;;;;5.57;2.07;;;2.10;99.00;;;;;;2090026;28;20182;-69
2021/12/13 05:29:53;;;;;;;5.10;2.38;;;2.10;99.10;;;;;;2089948;28;20227;-69
2021/12/13 05:31:08;;;;;;;3.17;2.33;;;2.10;99.10;;;;;;2089976;28;20185;-68
2021/12/13 05:32:31;;;;;;;3.53;2.20;;;2.10;99.10;;;;;;2089961;28;20158;-69
2021/12/13 05:33:36;;;;;;;3.47;2.10;;;2.00;99.10;;;;;;2090103;28;20220;-69
2021/12/13 05:34:52;;;;;;;3.13;2.05;;;2.10;99.10;;;;;;2090448;28;20305;-69
2021/12/13 05:35:58;;;;;;;3.38;2.08;;;2.00;99.10;;;;;;2089885;28;20170;-69
2021/12/13 05:37:03;;;;;;;3.08;1.85;;;2.00;99.10;;;;;;2089878;28;20248;-69
2021/12/13 05:38:13;;;;;;;2.53;1.95;;;2.00;99.10;;;;;;2089821;28;20237;-68
2021/12/13 05:39:17;;;;;;;2.25;1.75;;;2.00;99.20;;;;;;2082742;28;20236;-69
2021/12/13 05:40:32;;;;;;;2.95;1.95;;;1.90;99.20;;;;;;2082056;28;20179;-69
2021/12/13 05:41:33;;;;;;;2.72;2.28;;;2.00;99.40;;;;;;2090190;28;20168;-69
2021/12/13 05:42:58;;;;;;;4.10;2.05;;;1.90;99.40;;;;;;2090006;28;20181;-69
2021/12/13 05:44:09;;;;;;;2.83;1.92;;;1.90;99.60;;;;;;2084938;28;20166;-68
2021/12/13 05:45:19;;;;;;;3.45;2.03;;;1.80;99.70;;;;;;2083037;28;20173;-68
2021/12/13 05:46:25;;;;;;;3.30;2.13;;;1.90;99.80;;;;;;2082787;28;20193;-69
2021/12/13 05:47:27;;;;;;;3.13;2.10;;;1.90;99.90;;;;;;2082417;28;20710;-69
2021/12/13 05:48:34;;;;;;;3.28;2.00;;;1.90;99.90;;;;;;2081628;28;20213;-68
2021/12/13 05:49:44;;;;;;;2.70;1.90;;;1.90;99.90;;;;;;2089815;28;20223;-69
2021/12/13 05:50:54;;;;;;;2.75;2.00;;;1.90;99.90;;;;;;2089804;28;20188;-69
2021/12/13 05:52:10;;;;;;;3.28;2.00;;;2.00;99.90;;;;;;2082963;28;20178;-69
2021/12/13 05:53:20;;;;;;;3.15;1.90;;;2.00;99.90;;;;;;2083600;28;20192;-68
2021/12/13 05:54:30;;;;;;;4.10;2.28;;;2.00;99.90;;;;;;2089908;28;20196;-69
2021/12/13 05:55:31;;;;;;;5.15;2.70;;;2.10;99.90;;;;;;2090317;28;20173;-69
2021/12/13 05:56:44;;;;;;;4.10;2.60;;;2.10;99.90;;;;;;2090479;28;20594;-69
2021/12/13 05:57:51;;;;;;;5.07;2.72;;;2.10;99.90;;;;;;2089773;28;20164;-68
2021/12/13 05:59:08;;;;;;;5.25;2.83;;;2.20;99.80;;;;;;2089756;28;20173;-70
2021/12/13 06:00:24;;;;;;;3.25;2.35;;;2.20;99.70;;;;;;2089714;28;20157;-70
2021/12/13 06:01:42;;;;;;;3.42;2.15;;;2.20;99.60;;;;;;2083685;28;20710;-70
2021/12/13 06:03:17;;;;;;;3.50;2.40;;;2.20;99.50;;;;;;2083975;28;20212;-70
2021/12/13 06:04:33;;;;;;;4.60;2.50;;;2.20;99.40;;;;;;2086181;28;20665;-70
2021/12/13 06:05:46;;;;;;;2.50;2.28;;;2.20;99.30;;;;;;2084028;28;20205;-70
2021/12/13 06:06:54;;;;;;;2.92;1.90;;;2.20;99.30;;;;;;2083311;28;20170;-70
2021/12/13 06:08:06;;;;;;;4.68;2.03;;;2.20;99.40;;;;;;2089579;28;20230;-69
2021/12/13 06:09:07;;;;;;;2.95;2.30;;;2.20;99.40;;;;;;2081592;28;20285;-69
2021/12/13 06:10:16;;;;;;;4.30;2.40;;;2.30;99.40;;;;;;2081545;28;20170;-70
2021/12/13 06:11:34;;;;;;;5.53;2.65;;;2.30;99.30;;;;;;2081480;28;20163;-70
2021/12/13 06:12:50;;;;;;;3.22;2.40;;;2.20;99.30;;;;;;2075675;28;20282;-70
2021/12/13 06:13:59;;;;;;;3.53;2.40;;;2.20;99.30;;;;;;2081690;28;20163;-70
2021/12/13 06:15:27;;;;;;;3.75;2.30;;;2.20;99.20;;;;;;2082178;28;20218;-70
2021/12/13 06:16:41;;;;;;;2.85;2.08;;;2.20;99.20;;;;;;2082183;28;20170;-70
2021/12/13 06:17:55;;;;;;;3.63;2.40;;;2.30;99.20;;;;;;2082020;28;20256;-70
2021/12/13 06:19:15;;;;;;;3.95;2.30;;;2.40;99.10;;;;;;2082153;28;20572;-70
2021/12/13 06:20:47;;;;;;;3.33;2.03;;;2.40;99.00;;;;;;2081359;28;20189;-69
2021/12/13 06:22:24;;;;;;;3.08;2.20;;;2.40;99.00;;;;;;2081482;28;20529;-70
2021/12/13 06:23:28;;;;;;;3.33;2.25;;;2.40;98.80;;;;;;2077059;28;20210;-70